createdAt,value
2023-03-05T00:00:14.664Z,1008.33
2023-03-05T00:01:14.630Z,1008.33
2023-03-05T00:02:14.641Z,1008.26
2023-03-05T00:03:14.618Z,1008.28
2023-03-05T00:04:14.517Z,1008.24
2023-03-05T00:05:14.486Z,1008.26
2023-03-05T00:06:14.450Z,1008.26
2023-03-05T00:07:14.415Z,1008.26
2023-03-05T00:08:14.384Z,1008.24
2023-03-05T00:09:14.347Z,1008.3
2023-03-05T00:10:14.312Z,1008.28
2023-03-05T00:11:14.282Z,1008.32
2023-03-05T00:12:14.246Z,1008.34
2023-03-05T00:13:14.211Z,1008.33
2023-03-05T00:14:14.177Z,1008.27
2023-03-05T00:15:14.146Z,1008.27
2023-03-05T00:16:14.160Z,1008.33
2023-03-05T00:17:14.074Z,1008.31
2023-03-05T00:18:14.063Z,1008.28
2023-03-05T00:19:14.004Z,1008.27
2023-03-05T00:20:13.969Z,1008.24
2023-03-05T00:21:13.935Z,1008.23
2023-03-05T00:22:13.899Z,1008.2
2023-03-05T00:23:13.866Z,1008.18
2023-03-05T00:24:13.840Z,1008.14
2023-03-05T00:25:13.805Z,1008.14
2023-03-05T00:26:13.763Z,1008.13
2023-03-05T00:27:13.732Z,1008.11
2023-03-05T00:28:13.699Z,1008.09
2023-03-05T00:29:13.665Z,1008.11
2023-03-05T00:30:13.625Z,1008.1
2023-03-05T00:31:13.668Z,1008.1
2023-03-05T00:32:13.592Z,1008.07
2023-03-05T00:33:13.525Z,1008.1
2023-03-05T00:34:13.533Z,1008.09
2023-03-05T00:35:13.460Z,1008.12
2023-03-05T00:36:13.424Z,1008.08
2023-03-05T00:37:13.390Z,1008.08
2023-03-05T00:38:13.361Z,1008.12
2023-03-05T00:39:13.337Z,1008.06
2023-03-05T00:40:13.320Z,1008.07
2023-03-05T00:41:13.339Z,1008.06
2023-03-05T00:42:13.221Z,1008.03
2023-03-05T00:43:13.190Z,1008.06
2023-03-05T00:44:13.151Z,1008.05
2023-03-05T00:45:13.119Z,1008.09
2023-03-05T00:46:13.088Z,1007.99
2023-03-05T00:47:13.047Z,1008.03
2023-03-05T00:48:13.016Z,1008.03
2023-03-05T00:49:12.980Z,1008.06
2023-03-05T00:50:12.972Z,1007.95
2023-03-05T00:51:12.912Z,1008.02
2023-03-05T00:52:12.876Z,1008.05
2023-03-05T00:53:12.863Z,1008.02
2023-03-05T00:54:12.811Z,1008
2023-03-05T00:55:12.773Z,1008.03
2023-03-05T00:56:12.758Z,1007.97
2023-03-05T00:57:12.706Z,1008.06
2023-03-05T00:58:12.671Z,1007.98
2023-03-05T00:59:12.641Z,1007.95
2023-03-05T01:00:12.602Z,1007.92
2023-03-05T01:01:12.566Z,1007.98
2023-03-05T01:02:12.535Z,1007.95
2023-03-05T01:03:12.492Z,1007.94
2023-03-05T01:04:12.458Z,1007.9
2023-03-05T01:05:12.458Z,1007.86
2023-03-05T01:06:12.409Z,1007.93
2023-03-05T01:07:12.349Z,1007.87
2023-03-05T01:08:12.327Z,1007.88
2023-03-05T01:09:12.280Z,1007.85
2023-03-05T01:10:12.243Z,1007.84
2023-03-05T01:11:12.205Z,1007.8
2023-03-05T01:12:12.170Z,1007.79
2023-03-05T01:13:12.134Z,1007.82
2023-03-05T01:14:12.099Z,1007.79
2023-03-05T01:15:12.063Z,1007.8
2023-03-05T01:16:12.068Z,1007.79
2023-03-05T01:17:11.991Z,1007.83
2023-03-05T01:18:11.957Z,1007.75
2023-03-05T01:19:11.921Z,1007.78
2023-03-05T01:20:11.886Z,1007.76
2023-03-05T01:21:11.854Z,1007.77
2023-03-05T01:22:11.846Z,1007.78
2023-03-05T01:23:11.787Z,1007.75
2023-03-05T01:24:11.744Z,1007.75
2023-03-05T01:25:11.708Z,1007.7
2023-03-05T01:26:11.673Z,1007.74
2023-03-05T01:27:11.639Z,1007.69
2023-03-05T01:28:11.602Z,1007.68
2023-03-05T01:29:11.566Z,1007.69
2023-03-05T01:30:11.533Z,1007.67
2023-03-05T01:31:11.654Z,1007.63
2023-03-05T01:32:11.510Z,1007.63
2023-03-05T01:33:11.426Z,1007.64
2023-03-05T01:34:11.392Z,1007.58
2023-03-05T01:35:11.355Z,1007.59
2023-03-05T01:36:11.320Z,1007.59
2023-03-05T01:37:11.286Z,1007.55
2023-03-05T01:38:11.274Z,1007.61
2023-03-05T01:39:11.219Z,1007.55
2023-03-05T01:40:11.181Z,1007.54
2023-03-05T01:41:11.155Z,1007.51
2023-03-05T01:42:11.113Z,1007.55
2023-03-05T01:43:11.088Z,1007.56
2023-03-05T01:44:11.043Z,1007.52
2023-03-05T01:45:11.015Z,1007.48
2023-03-05T01:46:10.982Z,1007.45
2023-03-05T01:47:10.940Z,1007.44
2023-03-05T01:48:10.902Z,1007.45
2023-03-05T01:49:10.874Z,1007.46
2023-03-05T01:50:10.833Z,1007.44
2023-03-05T01:51:10.802Z,1007.5
2023-03-05T01:52:10.761Z,1007.45
2023-03-05T01:53:10.728Z,1007.48
2023-03-05T01:54:10.718Z,1007.45
2023-03-05T01:55:10.659Z,1007.45
2023-03-05T01:56:10.625Z,1007.42
2023-03-05T01:57:10.588Z,1007.43
2023-03-05T01:58:10.554Z,1007.43
2023-03-05T01:59:10.523Z,1007.39
2023-03-05T02:00:10.485Z,1007.38
2023-03-05T02:01:10.471Z,1007.41
2023-03-05T02:02:10.413Z,1007.42
2023-03-05T02:03:10.419Z,1007.36
2023-03-05T02:04:10.411Z,1007.37
2023-03-05T02:05:10.307Z,1007.37
2023-03-05T02:06:10.283Z,1007.38
2023-03-05T02:07:10.240Z,1007.37
2023-03-05T02:08:10.202Z,1007.42
2023-03-05T02:09:10.172Z,1007.36
2023-03-05T02:10:10.155Z,1007.35
2023-03-05T02:11:10.101Z,1007.3
2023-03-05T02:12:10.067Z,1007.3
2023-03-05T02:13:10.040Z,1007.28
2023-03-05T02:14:10.407Z,1007.25
2023-03-05T02:15:09.961Z,1007.19
2023-03-05T02:16:09.961Z,1007.18
2023-03-05T02:17:09.891Z,1007.15
2023-03-05T02:18:09.859Z,1007.15
2023-03-05T02:19:09.821Z,1007.15
2023-03-05T02:20:09.786Z,1007.13
2023-03-05T02:21:09.751Z,1007.12
2023-03-05T02:22:09.718Z,1007.13
2023-03-05T02:23:09.688Z,1007.09
2023-03-05T02:24:09.651Z,1007.15
2023-03-05T02:25:09.611Z,1007.14
2023-03-05T02:26:09.602Z,1007.06
2023-03-05T02:27:09.540Z,1007.02
2023-03-05T02:28:09.506Z,1007.01
2023-03-05T02:29:09.471Z,1007.07
2023-03-05T02:30:09.452Z,1007.05
2023-03-05T02:31:09.434Z,1007.03
2023-03-05T02:32:09.416Z,1007.02
2023-03-05T02:33:09.363Z,1006.98
2023-03-05T02:34:09.297Z,1006.91
2023-03-05T02:35:09.263Z,1006.93
2023-03-05T02:36:09.228Z,1006.91
2023-03-05T02:37:09.207Z,1006.91
2023-03-05T02:38:09.158Z,1006.94
2023-03-05T02:39:09.122Z,1006.9
2023-03-05T02:40:09.090Z,1006.84
2023-03-05T02:41:09.053Z,1006.84
2023-03-05T02:42:09.056Z,1006.9
2023-03-05T02:43:08.983Z,1006.85
2023-03-05T02:44:08.949Z,1006.85
2023-03-05T02:45:08.914Z,1006.88
2023-03-05T02:46:08.925Z,1006.9
2023-03-05T02:47:08.843Z,1006.86
2023-03-05T02:48:08.824Z,1006.89
2023-03-05T02:49:08.773Z,1006.83
2023-03-05T02:50:08.741Z,1006.84
2023-03-05T02:51:08.704Z,1006.82
2023-03-05T02:52:08.671Z,1006.82
2023-03-05T02:53:08.640Z,1006.81
2023-03-05T02:54:08.610Z,1006.76
2023-03-05T02:55:08.564Z,1006.74
2023-03-05T02:56:08.632Z,1006.75
2023-03-05T02:57:08.495Z,1006.73
2023-03-05T02:58:08.494Z,1006.75
2023-03-05T02:59:08.425Z,1006.73
2023-03-05T03:00:08.555Z,1006.71
2023-03-05T03:01:08.379Z,1006.7
2023-03-05T03:02:08.327Z,1006.69
2023-03-05T03:03:08.368Z,1006.67
2023-03-05T03:04:08.255Z,1006.7
2023-03-05T03:05:08.218Z,1006.75
2023-03-05T03:06:08.184Z,1006.65
2023-03-05T03:07:08.147Z,1006.65
2023-03-05T03:08:08.118Z,1006.66
2023-03-05T03:09:08.079Z,1006.67
2023-03-05T03:10:08.048Z,1006.62
2023-03-05T03:11:08.008Z,1006.62
2023-03-05T03:12:07.983Z,1006.55
2023-03-05T03:13:07.941Z,1006.59
2023-03-05T03:14:07.934Z,1006.56
2023-03-05T03:15:07.870Z,1006.54
2023-03-05T03:16:07.838Z,1006.53
2023-03-05T03:17:08.061Z,1006.53
2023-03-05T03:18:07.769Z,1006.56
2023-03-05T03:19:07.738Z,1006.54
2023-03-05T03:20:07.696Z,1006.55
2023-03-05T03:21:07.690Z,1006.54
2023-03-05T03:22:07.641Z,1006.55
2023-03-05T03:23:07.596Z,1006.52
2023-03-05T03:24:07.562Z,1006.52
2023-03-05T03:25:07.526Z,1006.46
2023-03-05T03:26:07.488Z,1006.48
2023-03-05T03:27:07.455Z,1006.47
2023-03-05T03:28:07.418Z,1006.45
2023-03-05T03:29:07.399Z,1006.38
2023-03-05T03:30:07.375Z,1006.36
2023-03-05T03:31:07.397Z,1006.36
2023-03-05T03:32:07.327Z,1006.31
2023-03-05T03:33:07.247Z,1006.28
2023-03-05T03:34:07.213Z,1006.25
2023-03-05T03:35:07.179Z,1006.27
2023-03-05T03:36:07.142Z,1006.26
2023-03-05T03:37:07.108Z,1006.22
2023-03-05T03:38:07.071Z,1006.22
2023-03-05T03:39:07.037Z,1006.18
2023-03-05T03:40:07.007Z,1006.17
2023-03-05T03:41:06.983Z,1006.2
2023-03-05T03:42:06.932Z,1006.2
2023-03-05T03:43:06.900Z,1006.14
2023-03-05T03:44:06.863Z,1006.2
2023-03-05T03:45:06.831Z,1006.19
2023-03-05T03:46:06.862Z,1006.21
2023-03-05T03:47:06.760Z,1006.18
2023-03-05T03:48:06.774Z,1006.14
2023-03-05T03:49:06.692Z,1006.13
2023-03-05T03:50:06.654Z,1006.15
2023-03-05T03:51:06.664Z,1006.16
2023-03-05T03:52:06.585Z,1006.11
2023-03-05T03:53:06.552Z,1006.13
2023-03-05T03:54:06.515Z,1006.07
2023-03-05T03:55:06.482Z,1006.06
2023-03-05T03:56:06.448Z,1006.05
2023-03-05T03:57:06.412Z,1006.05
2023-03-05T03:58:06.375Z,1006.03
2023-03-05T03:59:06.350Z,1006.03
2023-03-05T04:00:06.310Z,1006.04
2023-03-05T04:01:06.273Z,1006.03
2023-03-05T04:02:06.454Z,1005.97
2023-03-05T04:03:06.215Z,1006.01
2023-03-05T04:04:06.187Z,1005.99
2023-03-05T04:05:06.134Z,1006
2023-03-05T04:06:06.101Z,1006.02
2023-03-05T04:07:06.070Z,1005.96
2023-03-05T04:08:06.032Z,1005.97
2023-03-05T04:09:05.997Z,1005.97
2023-03-05T04:10:05.962Z,1005.98
2023-03-05T04:11:05.925Z,1005.92
2023-03-05T04:12:05.893Z,1005.92
2023-03-05T04:13:05.858Z,1005.9
2023-03-05T04:14:05.826Z,1005.89
2023-03-05T04:15:05.893Z,1005.86
2023-03-05T04:16:05.794Z,1005.88
2023-03-05T04:17:05.717Z,1005.86
2023-03-05T04:18:05.708Z,1005.86
2023-03-05T04:19:05.646Z,1005.82
2023-03-05T04:20:05.623Z,1005.81
2023-03-05T04:21:05.579Z,1005.81
2023-03-05T04:22:05.549Z,1005.8
2023-03-05T04:23:05.507Z,1005.8
2023-03-05T04:24:05.478Z,1005.79
2023-03-05T04:25:05.438Z,1005.78
2023-03-05T04:26:05.414Z,1005.73
2023-03-05T04:27:05.369Z,1005.72
2023-03-05T04:28:05.336Z,1005.68
2023-03-05T04:29:05.298Z,1005.68
2023-03-05T04:30:05.271Z,1005.65
2023-03-05T04:31:05.262Z,1005.64
2023-03-05T04:32:05.280Z,1005.61
2023-03-05T04:33:05.179Z,1005.62
2023-03-05T04:34:05.153Z,1005.53
2023-03-05T04:35:05.096Z,1005.6
2023-03-05T04:36:05.051Z,1005.6
2023-03-05T04:37:05.015Z,1005.59
2023-03-05T04:38:04.983Z,1005.57
2023-03-05T04:39:04.948Z,1005.54
2023-03-05T04:40:04.916Z,1005.52
2023-03-05T04:41:04.876Z,1005.51
2023-03-05T04:42:04.842Z,1005.53
2023-03-05T04:43:04.806Z,1005.52
2023-03-05T04:44:04.772Z,1005.56
2023-03-05T04:45:04.735Z,1005.55
2023-03-05T04:46:04.780Z,1005.58
2023-03-05T04:47:04.665Z,1005.59
2023-03-05T04:48:04.653Z,1005.53
2023-03-05T04:49:04.595Z,1005.59
2023-03-05T04:50:04.588Z,1005.6
2023-03-05T04:51:04.525Z,1005.55
2023-03-05T04:52:04.491Z,1005.6
2023-03-05T04:53:04.468Z,1005.59
2023-03-05T04:54:04.421Z,1005.57
2023-03-05T04:55:04.387Z,1005.58
2023-03-05T04:56:04.350Z,1005.57
2023-03-05T04:57:04.318Z,1005.61
2023-03-05T04:58:04.282Z,1005.58
2023-03-05T04:59:04.247Z,1005.58
2023-03-05T05:00:04.212Z,1005.58
2023-03-05T05:01:04.187Z,1005.56
2023-03-05T05:02:04.239Z,1005.53
2023-03-05T05:03:04.184Z,1005.55
2023-03-05T05:04:04.079Z,1005.56
2023-03-05T05:05:04.041Z,1005.6
2023-03-05T05:06:04.030Z,1005.54
2023-03-05T05:07:03.973Z,1005.57
2023-03-05T05:08:03.962Z,1005.54
2023-03-05T05:09:03.909Z,1005.55
2023-03-05T05:10:03.866Z,1005.54
2023-03-05T05:11:03.832Z,1005.51
2023-03-05T05:12:03.797Z,1005.51
2023-03-05T05:13:03.765Z,1005.49
2023-03-05T05:14:03.765Z,1005.51
2023-03-05T05:15:03.693Z,1005.48
2023-03-05T05:16:03.743Z,1005.46
2023-03-05T05:17:03.628Z,1005.45
2023-03-05T05:18:03.588Z,1005.46
2023-03-05T05:19:03.604Z,1005.4
2023-03-05T05:20:03.519Z,1005.44
2023-03-05T05:21:03.484Z,1005.45
2023-03-05T05:22:03.473Z,1005.47
2023-03-05T05:23:03.416Z,1005.45
2023-03-05T05:24:03.394Z,1005.43
2023-03-05T05:25:03.356Z,1005.42
2023-03-05T05:26:03.310Z,1005.44
2023-03-05T05:27:03.283Z,1005.4
2023-03-05T05:28:03.241Z,1005.4
2023-03-05T05:29:03.208Z,1005.44
2023-03-05T05:30:03.173Z,1005.4
2023-03-05T05:31:03.139Z,1005.35
2023-03-05T05:32:03.141Z,1005.38
2023-03-05T05:33:03.069Z,1005.37
2023-03-05T05:34:03.031Z,1005.36
2023-03-05T05:35:03.001Z,1005.32
2023-03-05T05:36:02.963Z,1005.33
2023-03-05T05:37:02.930Z,1005.32
2023-03-05T05:38:02.920Z,1005.33
2023-03-05T05:39:02.875Z,1005.3
2023-03-05T05:40:02.827Z,1005.3
2023-03-05T05:41:02.797Z,1005.29
2023-03-05T05:42:02.768Z,1005.26
2023-03-05T05:43:02.723Z,1005.28
2023-03-05T05:44:02.690Z,1005.25
2023-03-05T05:45:02.690Z,1005.28
2023-03-05T05:46:02.700Z,1005.24
2023-03-05T05:47:02.587Z,1005.29
2023-03-05T05:48:02.555Z,1005.3
2023-03-05T05:49:02.516Z,1005.25
2023-03-05T05:50:02.484Z,1005.22
2023-03-05T05:51:02.446Z,1005.28
2023-03-05T05:52:02.425Z,1005.27
2023-03-05T05:53:02.381Z,1005.26
2023-03-05T05:54:02.367Z,1005.21
2023-03-05T05:55:02.313Z,1005.19
2023-03-05T05:56:02.274Z,1005.17
2023-03-05T05:57:02.237Z,1005.13
2023-03-05T05:58:02.203Z,1005.11
2023-03-05T05:59:02.168Z,1005.18
2023-03-05T06:00:02.137Z,1005.2
2023-03-05T06:01:02.097Z,1005.14
2023-03-05T06:02:02.135Z,1005.16
2023-03-05T06:03:02.096Z,1005.18
2023-03-05T06:04:01.993Z,1005.19
2023-03-05T06:05:01.956Z,1005.18
2023-03-05T06:06:01.935Z,1005.19
2023-03-05T06:07:01.887Z,1005.15
2023-03-05T06:08:01.853Z,1005.15
2023-03-05T06:09:01.831Z,1005.17
2023-03-05T06:10:01.810Z,1005.15
2023-03-05T06:11:01.747Z,1005.2
2023-03-05T06:12:01.719Z,1005.16
2023-03-05T06:13:01.682Z,1005.21
2023-03-05T06:14:01.645Z,1005.19
2023-03-05T06:15:01.615Z,1005.19
2023-03-05T06:16:01.582Z,1005.2
2023-03-05T06:17:01.537Z,1005.18
2023-03-05T06:18:01.504Z,1005.17
2023-03-05T06:19:03.371Z,1005.2
2023-03-05T06:20:01.437Z,1005.17
2023-03-05T06:21:01.406Z,1005.19
2023-03-05T06:22:01.365Z,1005.18
2023-03-05T06:23:01.347Z,1005.19
2023-03-05T06:24:01.294Z,1005.17
2023-03-05T06:25:01.274Z,1005.21
2023-03-05T06:26:01.258Z,1005.21
2023-03-05T06:27:01.190Z,1005.26
2023-03-05T06:28:01.158Z,1005.22
2023-03-05T06:29:01.122Z,1005.25
2023-03-05T06:30:01.086Z,1005.23
2023-03-05T06:31:01.087Z,1005.19
2023-03-05T06:32:01.064Z,1005.17
2023-03-05T06:33:00.979Z,1005.2
2023-03-05T06:34:00.944Z,1005.18
2023-03-05T06:35:00.919Z,1005.21
2023-03-05T06:36:00.957Z,1005.24
2023-03-05T06:37:00.844Z,1005.24
2023-03-05T06:38:00.817Z,1005.22
2023-03-05T06:39:00.772Z,1005.19
2023-03-05T06:40:00.756Z,1005.2
2023-03-05T06:41:00.720Z,1005.21
2023-03-05T06:42:00.711Z,1005.18
2023-03-05T06:43:00.643Z,1005.18
2023-03-05T06:44:00.599Z,1005.18
2023-03-05T06:45:00.563Z,1005.11
2023-03-05T06:46:00.544Z,1005.12
2023-03-05T06:47:00.494Z,1005.16
2023-03-05T06:48:00.461Z,1005.18
2023-03-05T06:49:00.440Z,1005.15
2023-03-05T06:50:00.401Z,1005.17
2023-03-05T06:51:00.355Z,1005.29
2023-03-05T06:52:00.320Z,1005.19
2023-03-05T06:53:00.286Z,1005.22
2023-03-05T06:54:00.250Z,1005.25
2023-03-05T06:55:00.218Z,1005.24
2023-03-05T06:56:00.180Z,1005.27
2023-03-05T06:57:00.171Z,1005.26
2023-03-05T06:58:00.143Z,1005.21
2023-03-05T06:59:00.101Z,1005.24
2023-03-05T07:00:00.042Z,1005.21
2023-03-05T07:01:00.060Z,1005.17
2023-03-05T07:01:59.986Z,1005.16
2023-03-05T07:02:59.946Z,1005.19
2023-03-05T07:03:59.901Z,1005.19
2023-03-05T07:04:59.870Z,1005.17
2023-03-05T07:05:59.835Z,1005.15
2023-03-05T07:06:59.799Z,1005.19
2023-03-05T07:07:59.766Z,1005.18
2023-03-05T07:08:59.730Z,1005.12
2023-03-05T07:09:59.700Z,1005.14
2023-03-05T07:10:59.663Z,1005.19
2023-03-05T07:11:59.624Z,1005.14
2023-03-05T07:12:59.592Z,1005.08
2023-03-05T07:13:59.587Z,1005.13
2023-03-05T07:14:59.519Z,1005.1
2023-03-05T07:15:59.541Z,1005.09
2023-03-05T07:16:59.450Z,1005.06
2023-03-05T07:17:59.426Z,1005.08
2023-03-05T07:18:59.382Z,1005.06
2023-03-05T07:19:59.344Z,1005.07
2023-03-05T07:20:59.311Z,1005.11
2023-03-05T07:21:59.274Z,1005.08
2023-03-05T07:22:59.242Z,1005.08
2023-03-05T07:23:59.216Z,1005.07
2023-03-05T07:24:59.171Z,1005.09
2023-03-05T07:25:59.138Z,1005.05
2023-03-05T07:26:59.102Z,1005.05
2023-03-05T07:27:59.068Z,1005.04
2023-03-05T07:28:59.031Z,1005.03
2023-03-05T07:29:59.022Z,1005.07
2023-03-05T07:30:59.009Z,1005
2023-03-05T07:31:58.980Z,1004.99
2023-03-05T07:32:58.893Z,1005
2023-03-05T07:33:58.858Z,1004.99
2023-03-05T07:34:58.831Z,1004.99
2023-03-05T07:35:58.859Z,1004.95
2023-03-05T07:36:58.752Z,1004.97
2023-03-05T07:37:58.720Z,1004.93
2023-03-05T07:38:58.691Z,1004.94
2023-03-05T07:39:58.651Z,1004.96
2023-03-05T07:40:58.616Z,1004.9
2023-03-05T07:41:58.585Z,1004.91
2023-03-05T07:42:58.549Z,1004.9
2023-03-05T07:43:58.514Z,1004.9
2023-03-05T07:44:58.476Z,1004.88
2023-03-05T07:45:58.499Z,1004.87
2023-03-05T07:46:58.419Z,1004.86
2023-03-05T07:47:58.376Z,1004.87
2023-03-05T07:48:58.355Z,1004.83
2023-03-05T07:49:58.307Z,1004.81
2023-03-05T07:50:58.274Z,1004.79
2023-03-05T07:51:58.247Z,1004.81
2023-03-05T07:52:58.201Z,1004.81
2023-03-05T07:53:58.173Z,1004.77
2023-03-05T07:54:58.132Z,1004.81
2023-03-05T07:55:58.106Z,1004.8
2023-03-05T07:56:58.066Z,1004.78
2023-03-05T07:57:58.034Z,1004.77
2023-03-05T07:58:58.001Z,1004.77
2023-03-05T07:59:57.966Z,1004.73
2023-03-05T08:00:57.932Z,1004.74
2023-03-05T08:01:57.926Z,1004.74
2023-03-05T08:02:57.864Z,1004.7
2023-03-05T08:03:57.916Z,1004.74
2023-03-05T08:04:57.797Z,1004.67
2023-03-05T08:05:57.766Z,1004.71
2023-03-05T08:06:57.730Z,1004.74
2023-03-05T08:07:57.703Z,1004.69
2023-03-05T08:08:57.663Z,1004.66
2023-03-05T08:09:57.632Z,1004.7
2023-03-05T08:10:57.596Z,1004.7
2023-03-05T08:11:57.564Z,1004.68
2023-03-05T08:12:57.529Z,1004.67
2023-03-05T08:13:57.499Z,1004.67
2023-03-05T08:14:57.467Z,1004.65
2023-03-05T08:15:57.484Z,1004.61
2023-03-05T08:16:57.403Z,1004.61
2023-03-05T08:17:57.386Z,1004.62
2023-03-05T08:18:57.369Z,1004.63
2023-03-05T08:19:57.296Z,1004.63
2023-03-05T08:20:57.264Z,1004.61
2023-03-05T08:21:57.228Z,1004.57
2023-03-05T08:22:57.200Z,1004.6
2023-03-05T08:23:57.162Z,1004.6
2023-03-05T08:24:57.129Z,1004.58
2023-03-05T08:25:57.114Z,1004.53
2023-03-05T08:26:57.063Z,1004.54
2023-03-05T08:27:57.036Z,1004.5
2023-03-05T08:28:56.997Z,1004.52
2023-03-05T08:29:56.959Z,1004.54
2023-03-05T08:30:56.972Z,1004.52
2023-03-05T08:31:56.893Z,1004.51
2023-03-05T08:32:56.861Z,1004.53
2023-03-05T08:33:56.857Z,1004.51
2023-03-05T08:34:56.795Z,1004.51
2023-03-05T08:35:56.791Z,1004.51
2023-03-05T08:36:56.726Z,1004.51
2023-03-05T08:37:56.692Z,1004.47
2023-03-05T08:38:56.659Z,1004.48
2023-03-05T08:39:56.624Z,1004.48
2023-03-05T08:40:56.593Z,1004.51
2023-03-05T08:41:56.566Z,1004.51
2023-03-05T08:42:56.524Z,1004.51
2023-03-05T08:43:56.491Z,1004.5
2023-03-05T08:44:56.482Z,1004.55
2023-03-05T08:45:56.423Z,1004.51
2023-03-05T08:46:56.444Z,1004.46
2023-03-05T08:47:56.359Z,1004.53
2023-03-05T08:48:56.325Z,1004.43
2023-03-05T08:49:56.321Z,1004.45
2023-03-05T08:50:56.257Z,1004.41
2023-03-05T08:51:56.222Z,1004.36
2023-03-05T08:52:56.191Z,1004.44
2023-03-05T08:53:56.179Z,1004.39
2023-03-05T08:54:56.124Z,1004.39
2023-03-05T08:55:56.088Z,1004.4
2023-03-05T08:56:56.063Z,1004.42
2023-03-05T08:57:56.022Z,1004.34
2023-03-05T08:58:55.989Z,1004.35
2023-03-05T08:59:55.955Z,1004.37
2023-03-05T09:00:55.936Z,1004.36
2023-03-05T09:01:55.993Z,1004.29
2023-03-05T09:02:55.935Z,1004.27
2023-03-05T09:03:55.824Z,1004.28
2023-03-05T09:04:55.799Z,1004.36
2023-03-05T09:05:55.779Z,1004.3
2023-03-05T09:06:55.724Z,1004.28
2023-03-05T09:07:55.686Z,1004.28
2023-03-05T09:08:55.692Z,1004.25
2023-03-05T09:09:55.624Z,1004.23
2023-03-05T09:10:55.595Z,1004.24
2023-03-05T09:11:55.555Z,1004.24
2023-03-05T09:12:55.521Z,1004.23
2023-03-05T09:13:55.489Z,1004.21
2023-03-05T09:14:55.452Z,1004.25
2023-03-05T09:15:55.440Z,1004.25
2023-03-05T09:16:55.389Z,1004.27
2023-03-05T09:17:55.358Z,1004.28
2023-03-05T09:18:55.320Z,1004.27
2023-03-05T09:19:55.287Z,1004.26
2023-03-05T09:20:55.253Z,1004.23
2023-03-05T09:21:56.933Z,1004.28
2023-03-05T09:22:55.185Z,1004.25
2023-03-05T09:23:55.154Z,1004.26
2023-03-05T09:24:55.118Z,1004.23
2023-03-05T09:25:55.085Z,1004.21
2023-03-05T09:26:55.049Z,1004.18
2023-03-05T09:27:55.020Z,1004.21
2023-03-05T09:28:54.984Z,1004.12
2023-03-05T09:29:54.953Z,1004.18
2023-03-05T09:30:54.916Z,1004.16
2023-03-05T09:31:54.929Z,1004.19
2023-03-05T09:32:54.856Z,1004.15
2023-03-05T09:33:54.821Z,1004.14
2023-03-05T09:34:54.787Z,1004.14
2023-03-05T09:35:54.814Z,1004.12
2023-03-05T09:36:54.718Z,1004.1
2023-03-05T09:37:54.716Z,1004.12
2023-03-05T09:38:54.652Z,1004.08
2023-03-05T09:39:54.619Z,1004.09
2023-03-05T09:40:54.582Z,1004.1
2023-03-05T09:41:54.551Z,1004.04
2023-03-05T09:42:54.516Z,1004.12
2023-03-05T09:43:54.483Z,1004.08
2023-03-05T09:44:54.458Z,1004.07
2023-03-05T09:45:54.484Z,1004.05
2023-03-05T09:46:54.382Z,1004.06
2023-03-05T09:47:54.349Z,1004.04
2023-03-05T09:48:54.315Z,1004.02
2023-03-05T09:49:54.282Z,1004.01
2023-03-05T09:50:54.247Z,1004.01
2023-03-05T09:51:54.216Z,1004.02
2023-03-05T09:52:54.181Z,1004.05
2023-03-05T09:53:54.180Z,1003.99
2023-03-05T09:54:54.112Z,1004.02
2023-03-05T09:55:54.085Z,1004.05
2023-03-05T09:56:54.046Z,1004.03
2023-03-05T09:57:54.014Z,1004.04
2023-03-05T09:58:56.048Z,1004
2023-03-05T09:59:53.948Z,1004
2023-03-05T10:00:53.912Z,1004.02
2023-03-05T10:01:53.947Z,1003.99
2023-03-05T10:02:53.871Z,1003.98
2023-03-05T10:03:53.819Z,1003.93
2023-03-05T10:04:53.778Z,1003.98
2023-03-05T10:05:53.749Z,1004.01
2023-03-05T10:06:53.710Z,1004.04
2023-03-05T10:07:53.675Z,1003.96
2023-03-05T10:08:53.642Z,1004.02
2023-03-05T10:09:53.632Z,1004.05
2023-03-05T10:10:53.579Z,1004.03
2023-03-05T10:11:53.542Z,1004.09
2023-03-05T10:12:53.518Z,1004.02
2023-03-05T10:13:53.472Z,1004.04
2023-03-05T10:14:53.440Z,1004.01
2023-03-05T10:15:53.404Z,1003.93
2023-03-05T10:16:53.455Z,1003.94
2023-03-05T10:17:53.336Z,1003.94
2023-03-05T10:18:53.304Z,1003.93
2023-03-05T10:19:53.268Z,1003.89
2023-03-05T10:20:53.234Z,1003.97
2023-03-05T10:21:53.200Z,1003.9
2023-03-05T10:22:53.169Z,1003.91
2023-03-05T10:23:53.130Z,1003.9
2023-03-05T10:24:53.104Z,1003.86
2023-03-05T10:25:53.092Z,1003.85
2023-03-05T10:26:53.061Z,1003.88
2023-03-05T10:27:54.320Z,1003.83
2023-03-05T10:28:52.964Z,1003.84
2023-03-05T10:29:52.929Z,1003.85
2023-03-05T10:30:52.898Z,1003.77
2023-03-05T10:31:52.935Z,1003.78
2023-03-05T10:32:52.853Z,1003.77
2023-03-05T10:33:52.799Z,1003.76
2023-03-05T10:34:52.767Z,1003.72
2023-03-05T10:35:52.785Z,1003.73
2023-03-05T10:36:53.908Z,1003.68
2023-03-05T10:37:52.663Z,1003.73
2023-03-05T10:38:52.633Z,1003.72
2023-03-05T10:39:52.598Z,1003.68
2023-03-05T10:40:52.603Z,1003.74
2023-03-05T10:41:52.557Z,1003.69
2023-03-05T10:42:52.501Z,1003.66
2023-03-05T10:43:52.466Z,1003.68
2023-03-05T10:44:52.439Z,1003.61
2023-03-05T10:45:52.447Z,1003.61
2023-03-05T10:46:53.554Z,1003.62
2023-03-05T10:47:52.341Z,1003.6
2023-03-05T10:48:52.315Z,1003.62
2023-03-05T10:49:52.272Z,1003.62
2023-03-05T10:50:52.238Z,1003.53
2023-03-05T10:51:52.211Z,1003.59
2023-03-05T10:52:52.169Z,1003.54
2023-03-05T10:53:52.150Z,1003.59
2023-03-05T10:54:52.103Z,1003.55
2023-03-05T10:55:52.069Z,1003.52
2023-03-05T10:56:52.036Z,1003.53
2023-03-05T10:57:52.026Z,1003.52
2023-03-05T10:58:51.975Z,1003.56
2023-03-05T10:59:51.941Z,1003.49
2023-03-05T11:00:51.903Z,1003.52
2023-03-05T11:01:51.870Z,1003.47
2023-03-05T11:02:51.924Z,1003.51
2023-03-05T11:03:51.808Z,1003.45
2023-03-05T11:04:51.767Z,1003.46
2023-03-05T11:05:51.734Z,1003.37
2023-03-05T11:06:51.703Z,1003.4
2023-03-05T11:07:51.718Z,1003.37
2023-03-05T11:08:51.636Z,1003.36
2023-03-05T11:09:51.603Z,1003.37
2023-03-05T11:10:51.566Z,1003.41
2023-03-05T11:11:51.534Z,1003.37
2023-03-05T11:12:51.500Z,1003.34
2023-03-05T11:13:51.492Z,1003.39
2023-03-05T11:14:51.437Z,1003.29
2023-03-05T11:15:51.471Z,1003.31
2023-03-05T11:16:51.365Z,1003.36
2023-03-05T11:17:51.337Z,1003.31
2023-03-05T11:18:51.301Z,1003.26
2023-03-05T11:19:51.270Z,1003.27
2023-03-05T11:20:51.235Z,1003.23
2023-03-05T11:21:51.205Z,1003.27
2023-03-05T11:22:51.173Z,1003.27
2023-03-05T11:23:51.138Z,1003.23
2023-03-05T11:24:51.165Z,1003.25
2023-03-05T11:25:51.077Z,1003.22
2023-03-05T11:26:51.044Z,1003.23
2023-03-05T11:27:53.072Z,1003.2
2023-03-05T11:28:50.980Z,1003.23
2023-03-05T11:29:50.972Z,1003.21
2023-03-05T11:30:50.948Z,1003.23
2023-03-05T11:31:50.885Z,1003.17
2023-03-05T11:32:50.852Z,1003.22
2023-03-05T11:33:50.821Z,1003.21
2023-03-05T11:34:50.789Z,1003.2
2023-03-05T11:35:50.838Z,1003.2
2023-03-05T11:36:50.741Z,1003.2
2023-03-05T11:37:50.696Z,1003.24
2023-03-05T11:38:50.665Z,1003.15
2023-03-05T11:39:50.635Z,1003.15
2023-03-05T11:40:50.602Z,1003.1
2023-03-05T11:41:50.572Z,1003.15
2023-03-05T11:42:50.541Z,1003.07
2023-03-05T11:43:50.507Z,1003.08
2023-03-05T11:44:50.478Z,1003.06
2023-03-05T11:45:50.497Z,1003.07
2023-03-05T11:46:50.413Z,1003.06
2023-03-05T11:47:50.391Z,1002.97
2023-03-05T11:48:50.355Z,1002.96
2023-03-05T11:49:50.320Z,1002.99
2023-03-05T11:50:50.288Z,1002.96
2023-03-05T11:51:50.252Z,1002.95
2023-03-05T11:52:50.222Z,1002.93
2023-03-05T11:53:50.190Z,1002.92
2023-03-05T11:54:50.160Z,1002.96
2023-03-05T11:55:50.128Z,1002.93
2023-03-05T11:56:50.101Z,1002.87
2023-03-05T11:57:50.068Z,1002.88
2023-03-05T11:58:50.037Z,1002.87
2023-03-05T11:59:50.001Z,1002.83
2023-03-05T12:00:49.983Z,1002.84
2023-03-05T12:01:49.961Z,1002.78
2023-03-05T12:02:49.988Z,1002.78
2023-03-05T12:03:49.917Z,1002.81
2023-03-05T12:04:49.853Z,1002.76
2023-03-05T12:05:49.814Z,1002.75
2023-03-05T12:06:49.791Z,1002.75
2023-03-05T12:07:49.746Z,1002.71